Time,TemperatureF,DewpointF,PressureIn,WindDirection,WindDirectionDegrees,WindSpeedMPH,WindSpeedGustMPH,Humidity,HourlyPrecipIn,Conditions,Clouds,dailyrainin,SoftwareType,DateUTC
2013-06-17 00:01:00,71.6,62.1,29.94,SW,225,1.6,2.2,72,0.00,,,0.00,pywws,2013-06-17 04:01:00,
2013-06-17 00:03:00,71.6,62.1,29.94,North,0,1.6,3.1,72,0.00,,,0.00,pywws,2013-06-17 04:03:00,
2013-06-17 00:04:00,71.2,62.1,29.93,SW,225,1.6,3.1,73,0.00,,,0.00,pywws,2013-06-17 04:04:00,
2013-06-17 00:05:00,71.2,62.1,29.94,SW,225,0.7,1.6,73,0.00,,,0.00,pywws,2013-06-17 04:05:00,
2013-06-17 00:11:00,71.2,62.5,29.94,West,270,1.6,2.2,74,0.00,,,0.00,pywws,2013-06-17 04:11:00,
2013-06-17 00:12:00,71.2,62.5,29.93,West,270,0.0,0.7,74,0.00,,,0.00,pywws,2013-06-17 04:12:00,
2013-06-17 00:17:00,71.1,62.3,29.94,SW,225,0.7,2.2,74,0.00,,,0.00,pywws,2013-06-17 04:17:00,
2013-06-17 00:23:00,70.7,62.0,29.94,SW,225,0.0,0.7,74,0.00,,,0.00,pywws,2013-06-17 04:23:00,
2013-06-17 00:28:00,70.5,62.2,29.94,SW,225,0.0,0.7,75,0.00,,,0.00,pywws,2013-06-17 04:28:00,
2013-06-17 00:34:00,70.3,62.0,29.94,South,180,0.0,0.7,75,0.00,,,0.00,pywws,2013-06-17 04:34:00,
2013-06-17 00:40:00,70.2,62.2,29.94,South,180,0.0,0.0,76,0.00,,,0.00,pywws,2013-06-17 04:40:00,
2013-06-17 00:45:00,70.0,62.1,29.95,South,180,0.0,0.0,76,0.00,,,0.00,pywws,2013-06-17 04:45:00,
2013-06-17 00:51:00,70.0,62.1,29.95,South,180,0.0,0.0,76,0.00,,,0.00,pywws,2013-06-17 04:51:00,
2013-06-17 00:56:00,69.4,62.3,29.95,East,90,0.0,0.0,78,0.00,,,0.00,pywws,2013-06-17 04:56:00,
2013-06-17 01:02:00,69.3,62.1,29.94,East,90,0.0,0.0,78,0.00,,,0.00,pywws,2013-06-17 05:02:00,
2013-06-17 01:08:00,69.1,62.3,29.95,East,90,0.0,0.0,79,0.00,,,0.00,pywws,2013-06-17 05:08:00,
2013-06-17 01:13:00,68.9,62.1,29.95,East,90,0.0,0.0,79,0.00,,,0.00,pywws,2013-06-17 05:13:00,
2013-06-17 01:19:00,68.5,62.1,29.95,East,90,0.0,0.0,80,0.00,,,0.00,pywws,2013-06-17 05:19:00,
2013-06-17 01:24:00,68.4,61.9,29.94,East,90,0.0,0.0,80,0.00,,,0.00,pywws,2013-06-17 05:24:00,
2013-06-17 01:30:00,68.4,62.3,29.95,East,90,0.0,0.0,81,0.00,,,0.00,pywws,2013-06-17 05:30:00,
2013-06-17 01:36:00,68.2,62.1,29.95,South,180,0.0,0.0,81,0.00,,,0.00,pywws,2013-06-17 05:36:00,
2013-06-17 01:41:00,68.0,62.3,29.94,SE,135,0.0,0.0,82,0.00,,,0.00,pywws,2013-06-17 05:41:00,
2013-06-17 01:47:00,67.8,62.5,29.95,South,180,0.0,0.0,83,0.00,,,0.00,pywws,2013-06-17 05:47:00,
2013-06-17 01:52:00,67.6,62.6,29.95,South,180,0.0,0.0,84,0.00,,,0.00,pywws,2013-06-17 05:52:00,
2013-06-17 01:58:00,67.6,62.6,29.94,South,180,0.0,0.0,84,0.00,,,0.00,pywws,2013-06-17 05:58:00,
2013-06-17 02:04:00,67.6,62.6,29.95,South,180,0.0,0.0,84,0.00,,,0.00,pywws,2013-06-17 06:04:00,
2013-06-17 02:09:00,67.3,62.3,29.95,East,90,0.0,0.0,84,0.00,,,0.00,pywws,2013-06-17 06:09:00,
2013-06-17 02:15:00,67.3,62.3,29.95,South,180,0.0,0.0,84,0.00,,,0.00,pywws,2013-06-17 06:15:00,
2013-06-17 02:20:00,67.1,62.4,29.95,South,180,0.0,0.0,85,0.00,,,0.00,pywws,2013-06-17 06:20:00,
2013-06-17 02:26:00,67.1,62.4,29.95,South,180,0.0,0.0,85,0.00,,,0.00,pywws,2013-06-17 06:26:00,
2013-06-17 02:32:00,66.9,62.3,29.95,South,180,0.0,0.0,85,0.00,,,0.00,pywws,2013-06-17 06:32:00,
2013-06-17 02:37:00,66.9,62.3,29.95,East,90,0.0,0.0,85,0.00,,,0.00,pywws,2013-06-17 06:37:00,
2013-06-17 02:43:00,66.7,62.1,29.95,SW,225,0.0,0.7,85,0.00,,,0.00,pywws,2013-06-17 06:43:00,
2013-06-17 02:48:00,66.7,62.4,29.96,SW,225,0.0,0.0,86,0.00,,,0.00,pywws,2013-06-17 06:48:00,
2013-06-17 02:55:00,66.7,62.4,29.95,East,90,0.0,0.0,86,0.00,,,0.00,pywws,2013-06-17 06:55:00,
2013-06-17 03:01:00,66.6,62.2,29.95,SW,225,0.0,0.7,86,0.00,,,0.00,pywws,2013-06-17 07:01:00,
2013-06-17 03:07:00,66.6,62.2,29.95,SW,225,0.7,1.6,86,0.00,,,0.00,pywws,2013-06-17 07:07:00,
2013-06-17 03:12:00,66.6,62.2,29.96,SW,225,1.6,2.2,86,0.00,,,0.00,pywws,2013-06-17 07:12:00,
2013-06-17 03:18:00,66.4,62.1,29.96,West,270,0.0,0.7,86,0.00,,,0.00,pywws,2013-06-17 07:18:00,
2013-06-17 03:24:00,66.4,62.1,29.96,SW,225,0.7,1.6,86,0.00,,,0.00,pywws,2013-06-17 07:24:00,
2013-06-17 03:29:00,66.4,62.1,29.96,SW,225,0.0,0.0,86,0.00,,,0.00,pywws,2013-06-17 07:29:00,
2013-06-17 03:35:00,66.4,62.1,29.96,SW,225,1.6,2.2,86,0.00,,,0.00,pywws,2013-06-17 07:35:00,
2013-06-17 03:40:00,66.4,62.1,29.96,WSW,248,0.7,1.6,86,0.00,,,0.00,pywws,2013-06-17 07:40:00,
2013-06-17 03:46:00,66.4,62.1,29.96,South,180,0.7,1.6,86,0.00,,,0.00,pywws,2013-06-17 07:46:00,
2013-06-17 03:52:00,66.2,62.2,29.96,West,270,2.2,3.8,87,0.00,,,0.00,pywws,2013-06-17 07:52:00,
2013-06-17 03:57:00,66.4,62.4,29.96,SW,225,0.7,2.2,87,0.00,,,0.00,pywws,2013-06-17 07:57:00,
2013-06-17 04:03:00,66.4,62.4,29.96,SW,225,1.6,2.2,87,0.00,,,0.00,pywws,2013-06-17 08:03:00,
2013-06-17 04:08:00,66.4,62.4,29.96,WSW,248,1.6,3.1,87,0.00,,,0.00,pywws,2013-06-17 08:08:00,
2013-06-17 04:14:00,66.4,62.4,29.96,SW,225,1.6,2.2,87,0.00,,,0.00,pywws,2013-06-17 08:14:00,
2013-06-17 04:20:00,66.4,62.4,29.96,SW,225,1.6,2.2,87,0.00,,,0.00,pywws,2013-06-17 08:20:00,
2013-06-17 04:25:00,66.6,62.6,29.97,SW,225,1.6,3.1,87,0.00,,,0.00,pywws,2013-06-17 08:25:00,
2013-06-17 04:31:00,66.4,62.4,29.97,South,180,1.6,3.8,87,0.00,,,0.00,pywws,2013-06-17 08:31:00,
2013-06-17 04:36:00,66.4,62.4,29.97,WSW,248,0.7,2.2,87,0.00,,,0.00,pywws,2013-06-17 08:36:00,
2013-06-17 04:42:00,66.4,62.1,29.96,SW,225,0.7,1.6,86,0.00,,,0.00,pywws,2013-06-17 08:42:00,
2013-06-17 04:48:00,66.4,62.4,29.97,West,270,0.7,1.6,87,0.00,,,0.00,pywws,2013-06-17 08:48:00,
2013-06-17 04:53:00,66.4,62.4,29.97,SW,225,1.6,3.8,87,0.00,,,0.00,pywws,2013-06-17 08:53:00,
2013-06-17 05:00:00,66.2,62.2,29.97,SW,225,0.7,2.2,87,0.00,,,0.00,pywws,2013-06-17 09:00:00,
2013-06-17 05:06:00,66.2,62.2,29.97,SW,225,2.2,3.1,87,0.00,,,0.00,pywws,2013-06-17 09:06:00,
2013-06-17 05:12:00,66.2,62.2,29.97,SE,135,0.0,0.7,87,0.00,,,0.00,pywws,2013-06-17 09:12:00,
2013-06-17 05:17:00,66.2,62.2,29.97,SE,135,0.0,0.0,87,0.00,,,0.00,pywws,2013-06-17 09:17:00,
2013-06-17 05:23:00,66.2,62.2,29.97,South,180,0.0,0.0,87,0.00,,,0.00,pywws,2013-06-17 09:23:00,
2013-06-17 05:28:00,66.2,62.2,29.97,South,180,0.7,1.6,87,0.00,,,0.00,pywws,2013-06-17 09:28:00,
2013-06-17 05:34:00,66.0,62.4,29.97,South,180,0.0,0.0,88,0.00,,,0.00,pywws,2013-06-17 09:34:00,
2013-06-17 05:40:00,66.0,62.4,29.98,South,180,0.0,0.0,88,0.00,,,0.00,pywws,2013-06-17 09:40:00,
2013-06-17 05:45:00,66.0,62.4,29.98,East,90,0.0,0.0,88,0.00,,,0.00,pywws,2013-06-17 09:45:00,
2013-06-17 05:51:00,65.8,62.2,29.98,East,90,0.0,0.0,88,0.00,,,0.00,pywws,2013-06-17 09:51:00,
2013-06-17 05:57:00,65.8,62.2,29.98,SW,225,0.0,0.0,88,0.00,,,0.00,pywws,2013-06-17 09:57:00,
2013-06-17 06:03:00,65.8,62.2,29.98,South,180,0.0,0.7,88,0.00,,,0.00,pywws,2013-06-17 10:03:00,
2013-06-17 06:09:00,65.7,62.0,29.98,NE,45,0.0,0.0,88,0.00,,,0.00,pywws,2013-06-17 10:09:00,
2013-06-17 06:15:00,65.7,62.0,29.98,East,90,0.0,0.0,88,0.00,,,0.00,pywws,2013-06-17 10:15:00,
2013-06-17 06:20:00,65.7,62.3,29.98,East,90,0.0,0.0,89,0.00,,,0.00,pywws,2013-06-17 10:20:00,
2013-06-17 06:26:00,65.7,62.3,29.98,West,270,0.0,0.0,89,0.00,,,0.00,pywws,2013-06-17 10:26:00,
2013-06-17 06:32:00,66.0,62.7,29.98,East,90,0.0,0.0,89,0.00,,,0.00,pywws,2013-06-17 10:32:00,
2013-06-17 06:37:00,66.2,62.5,29.98,NW,315,0.0,0.7,88,0.00,,,0.00,pywws,2013-06-17 10:37:00,
2013-06-17 06:43:00,66.6,62.9,29.98,East,90,0.0,0.0,88,0.00,,,0.00,pywws,2013-06-17 10:43:00,
2013-06-17 06:48:00,66.9,63.2,29.99,South,180,0.0,0.7,88,0.00,,,0.00,pywws,2013-06-17 10:48:00,
2013-06-17 06:54:00,67.3,63.6,29.99,SW,225,0.7,1.6,88,0.00,,,0.00,pywws,2013-06-17 10:54:00,
2013-06-17 07:00:00,67.6,64.0,29.99,SSW,202,1.6,3.1,88,0.00,,,0.00,pywws,2013-06-17 11:00:00,
2013-06-17 07:06:00,67.8,63.8,29.99,WNW,292,1.6,2.2,87,0.00,,,0.00,pywws,2013-06-17 11:06:00,
2013-06-17 07:12:00,68.2,63.8,29.99,SW,225,2.2,3.1,86,0.00,,,0.00,pywws,2013-06-17 11:12:00,
2013-06-17 07:17:00,68.4,63.7,29.99,East,90,0.0,0.0,85,0.00,,,0.00,pywws,2013-06-17 11:17:00,
2013-06-17 07:23:00,68.5,63.8,30.00,West,270,2.2,3.8,85,0.00,,,0.00,pywws,2013-06-17 11:23:00,
2013-06-17 07:28:00,68.9,63.9,29.99,South,180,0.7,2.2,84,0.00,,,0.00,pywws,2013-06-17 11:28:00,
2013-06-17 07:34:00,69.1,64.0,29.99,South,180,0.0,1.6,84,0.00,,,0.00,pywws,2013-06-17 11:34:00,
2013-06-17 07:40:00,69.4,64.4,29.99,West,270,2.2,3.1,84,0.00,,,0.00,pywws,2013-06-17 11:40:00,
2013-06-17 07:45:00,70.0,64.2,29.99,East,90,2.2,4.5,82,0.00,,,0.00,pywws,2013-06-17 11:45:00,
2013-06-17 07:51:00,70.3,64.2,29.99,SW,225,2.2,3.8,81,0.00,,,0.00,pywws,2013-06-17 11:51:00,
2013-06-17 07:56:00,70.3,63.9,29.99,East,90,0.0,0.0,80,0.00,,,0.00,pywws,2013-06-17 11:56:00,
2013-06-17 08:02:00,70.5,63.7,30.00,SW,225,2.2,3.8,79,0.00,,,0.00,pywws,2013-06-17 12:02:00,
2013-06-17 08:08:00,70.7,63.9,30.00,South,180,1.6,3.1,79,0.00,,,0.00,pywws,2013-06-17 12:08:00,
2013-06-17 08:13:00,70.9,63.7,30.00,West,270,3.8,6.0,78,0.00,,,0.00,pywws,2013-06-17 12:13:00,
2013-06-17 08:19:00,71.4,64.2,30.00,South,180,3.8,5.4,78,0.00,,,0.00,pywws,2013-06-17 12:19:00,
2013-06-17 08:24:00,71.8,63.8,30.00,SW,225,2.2,4.5,76,0.00,,,0.00,pywws,2013-06-17 12:24:00,
2013-06-17 08:30:00,72.1,63.8,30.00,West,270,3.1,3.8,75,0.00,,,0.00,pywws,2013-06-17 12:30:00,
2013-06-17 08:36:00,72.5,64.1,30.00,North,0,2.2,3.1,75,0.00,,,0.00,pywws,2013-06-17 12:36:00,
2013-06-17 08:41:00,72.7,63.9,30.00,West,270,3.8,6.9,74,0.00,,,0.00,pywws,2013-06-17 12:41:00,
2013-06-17 08:47:00,73.0,64.2,30.00,SW,225,8.3,9.8,74,0.00,,,0.00,pywws,2013-06-17 12:47:00,
2013-06-17 08:52:00,73.4,65.0,29.99,SW,225,3.8,5.4,75,0.00,,,0.00,pywws,2013-06-17 12:52:00,
2013-06-17 08:58:00,73.9,65.1,30.00,North,0,5.4,7.6,74,0.00,,,0.00,pywws,2013-06-17 12:58:00,
2013-06-17 09:04:00,74.3,65.1,29.99,NW,315,6.9,7.6,73,0.00,,,0.00,pywws,2013-06-17 13:04:00,
2013-06-17 09:09:00,74.3,64.3,29.99,NW,315,2.2,5.4,71,0.00,,,0.00,pywws,2013-06-17 13:09:00,
2013-06-17 09:15:00,74.5,64.4,29.99,West,270,1.6,3.8,71,0.00,,,0.00,pywws,2013-06-17 13:15:00,
2013-06-17 09:20:00,74.7,64.6,29.99,SSE,158,0.7,2.2,71,0.00,,,0.00,pywws,2013-06-17 13:20:00,
2013-06-17 09:26:00,75.2,64.7,29.99,SW,225,4.5,6.0,70,0.00,,,0.00,pywws,2013-06-17 13:26:00,
2013-06-17 09:32:00,76.3,65.8,29.99,SW,225,2.2,3.8,70,0.00,,,0.00,pywws,2013-06-17 13:32:00,
2013-06-17 09:37:00,76.8,65.0,29.99,NW,315,3.1,4.5,67,0.00,,,0.00,pywws,2013-06-17 13:37:00,
2013-06-17 09:43:00,77.4,65.1,29.99,NW,315,4.5,6.0,66,0.00,,,0.00,pywws,2013-06-17 13:43:00,
2013-06-17 09:48:00,77.9,65.2,29.99,WSW,248,3.8,4.5,65,0.00,,,0.00,pywws,2013-06-17 13:48:00,
2013-06-17 09:54:00,78.8,65.1,29.99,SW,225,3.8,6.0,63,0.00,,,0.00,pywws,2013-06-17 13:54:00,
2013-06-17 10:00:00,79.5,65.3,29.98,NW,315,0.0,0.7,62,0.00,,,0.00,pywws,2013-06-17 14:00:00,
2013-06-17 10:06:00,80.1,65.4,29.98,SW,225,2.2,3.1,61,0.00,,,0.00,pywws,2013-06-17 14:06:00,
2013-06-17 10:12:00,80.2,64.1,29.98,WNW,292,1.6,3.8,58,0.00,,,0.00,pywws,2013-06-17 14:12:00,
2013-06-17 10:17:00,80.6,63.9,29.98,South,180,2.2,3.8,57,0.00,,,0.00,pywws,2013-06-17 14:17:00,
2013-06-17 10:23:00,81.0,63.8,29.98,SW,225,4.5,6.9,56,0.00,,,0.00,pywws,2013-06-17 14:23:00,
2013-06-17 10:28:00,81.5,64.3,29.98,SW,225,0.7,3.8,56,0.00,,,0.00,pywws,2013-06-17 14:28:00,
2013-06-17 10:34:00,81.9,64.1,29.98,NW,315,2.2,3.1,55,0.00,,,0.00,pywws,2013-06-17 14:34:00,
2013-06-17 10:40:00,82.4,64.1,29.97,NW,315,4.5,6.9,54,0.00,,,0.00,pywws,2013-06-17 14:40:00,
2013-06-17 10:45:00,82.9,64.6,29.97,SW,225,3.1,4.5,54,0.00,,,0.00,pywws,2013-06-17 14:45:00,
2013-06-17 10:51:00,83.1,64.2,29.96,WSW,248,0.7,2.2,53,0.00,,,0.00,pywws,2013-06-17 14:51:00,
2013-06-17 10:56:00,83.7,63.6,29.96,WSW,248,5.4,7.6,51,0.00,,,0.00,pywws,2013-06-17 14:56:00,
2013-06-17 11:02:00,83.7,63.6,29.96,WNW,292,0.7,2.2,51,0.00,,,0.00,pywws,2013-06-17 15:02:00,
2013-06-17 11:08:00,83.7,63.0,29.96,West,270,5.4,9.2,50,0.00,,,0.00,pywws,2013-06-17 15:08:00,
2013-06-17 11:13:00,83.7,63.6,29.96,South,180,4.5,8.3,51,0.00,,,0.00,pywws,2013-06-17 15:13:00,
2013-06-17 11:19:00,84.4,64.2,29.96,SSW,202,2.2,3.8,51,0.00,,,0.00,pywws,2013-06-17 15:19:00,
2013-06-17 11:25:00,84.9,63.6,29.96,NW,315,4.5,7.6,49,0.00,,,0.00,pywws,2013-06-17 15:25:00,
2013-06-17 11:31:00,84.9,64.2,29.96,WSW,248,4.5,7.6,50,0.00,,,0.00,pywws,2013-06-17 15:31:00,
2013-06-17 11:36:00,85.1,63.8,29.96,North,0,4.5,8.3,49,0.00,,,0.00,pywws,2013-06-17 15:36:00,
2013-06-17 11:42:00,85.1,63.2,29.96,West,270,7.6,12.1,48,0.00,,,0.00,pywws,2013-06-17 15:42:00,
2013-06-17 11:48:00,84.9,62.4,29.96,SW,225,4.5,7.6,47,0.00,,,0.00,pywws,2013-06-17 15:48:00,
2013-06-17 11:53:00,85.5,64.1,29.96,West,270,6.9,13.0,49,0.00,,,0.00,pywws,2013-06-17 15:53:00,
2013-06-17 11:59:00,85.6,63.7,29.96,West,270,8.3,9.8,48,0.00,,,0.00,pywws,2013-06-17 15:59:00,
2013-06-17 12:04:00,85.6,63.1,29.96,West,270,7.6,9.2,47,0.00,,,0.00,pywws,2013-06-17 16:04:00,
2013-06-17 12:10:00,85.8,63.2,29.96,SSW,202,9.8,13.6,47,0.00,,,0.00,pywws,2013-06-17 16:10:00,
2013-06-17 12:16:00,86.4,63.1,29.96,West,270,3.8,6.0,46,0.00,,,0.00,pywws,2013-06-17 16:16:00,
2013-06-17 12:21:00,86.7,63.4,29.96,South,180,3.8,5.4,46,0.00,,,0.00,pywws,2013-06-17 16:21:00,
2013-06-17 12:27:00,86.4,63.7,29.96,SW,225,5.4,9.8,47,0.00,,,0.00,pywws,2013-06-17 16:27:00,
2013-06-17 12:32:00,85.5,62.9,29.96,SW,225,8.3,13.0,47,0.00,,,0.00,pywws,2013-06-17 16:32:00,
2013-06-17 12:38:00,84.4,62.5,29.96,South,180,5.4,9.2,48,0.00,,,0.00,pywws,2013-06-17 16:38:00,
2013-06-17 12:44:00,84.6,62.7,29.96,SW,225,6.9,9.8,48,0.00,,,0.00,pywws,2013-06-17 16:44:00,
2013-06-17 12:49:00,85.5,62.9,29.96,SW,225,5.4,8.3,47,0.00,,,0.00,pywws,2013-06-17 16:49:00,
2013-06-17 12:55:00,85.8,63.2,29.96,SSE,158,6.0,12.1,47,0.00,,,0.00,pywws,2013-06-17 16:55:00,
2013-06-17 13:00:00,85.6,63.7,29.96,SW,225,5.4,9.8,48,0.00,,,0.00,pywws,2013-06-17 17:00:00,
2013-06-17 13:06:00,86.0,63.4,29.96,West,270,5.4,7.6,47,0.00,,,0.00,pywws,2013-06-17 17:06:00,
2013-06-17 13:12:00,86.4,62.5,29.95,South,180,6.0,9.2,45,0.00,,,0.00,pywws,2013-06-17 17:12:00,
2013-06-17 13:17:00,86.5,62.6,29.96,WSW,248,6.0,10.7,45,0.00,,,0.00,pywws,2013-06-17 17:17:00,
2013-06-17 13:23:00,86.0,62.2,29.95,West,270,7.6,12.1,45,0.00,,,0.00,pywws,2013-06-17 17:23:00,
2013-06-17 13:28:00,85.8,62.6,29.95,East,90,5.4,8.3,46,0.00,,,0.00,pywws,2013-06-17 17:28:00,
2013-06-17 13:34:00,86.0,62.2,29.94,South,180,6.9,11.4,45,0.00,,,0.00,pywws,2013-06-17 17:34:00,
2013-06-17 13:40:00,85.8,63.2,29.94,West,270,5.4,6.9,47,0.00,,,0.00,pywws,2013-06-17 17:40:00,
2013-06-17 13:45:00,86.4,63.7,29.94,SW,225,6.9,10.7,47,0.00,,,0.00,pywws,2013-06-17 17:45:00,
2013-06-17 13:51:00,86.2,62.9,29.94,SW,225,4.5,8.3,46,0.00,,,0.00,pywws,2013-06-17 17:51:00,
2013-06-17 13:56:00,86.5,62.6,29.94,South,180,2.2,4.5,45,0.00,,,0.00,pywws,2013-06-17 17:56:00,
2013-06-17 14:02:00,87.3,63.3,29.93,NNW,338,5.4,9.2,45,0.00,,,0.00,pywws,2013-06-17 18:02:00,
2013-06-17 14:08:00,87.8,63.1,29.94,SW,225,11.4,14.5,44,0.00,,,0.00,pywws,2013-06-17 18:08:00,
2013-06-17 14:13:00,88.0,62.6,29.94,NW,315,4.5,9.2,43,0.00,,,0.00,pywws,2013-06-17 18:13:00,
2013-06-17 14:19:00,87.3,61.3,29.94,SW,225,6.9,10.7,42,0.00,,,0.00,pywws,2013-06-17 18:19:00,
2013-06-17 14:25:00,86.5,61.3,29.93,SW,225,3.8,6.0,43,0.00,,,0.00,pywws,2013-06-17 18:25:00,
2013-06-17 14:31:00,86.9,62.3,29.93,West,270,6.0,9.2,44,0.00,,,0.00,pywws,2013-06-17 18:31:00,
2013-06-17 14:36:00,86.7,62.2,29.93,SW,225,7.6,13.6,44,0.00,,,0.00,pywws,2013-06-17 18:36:00,
2013-06-17 14:42:00,86.0,60.9,29.94,SW,225,3.8,6.0,43,0.00,,,0.00,pywws,2013-06-17 18:42:00,
2013-06-17 14:48:00,85.6,61.8,29.93,SW,225,6.9,9.2,45,0.00,,,0.00,pywws,2013-06-17 18:48:00,
2013-06-17 14:53:00,84.9,61.2,29.93,West,270,6.0,8.3,45,0.00,,,0.00,pywws,2013-06-17 18:53:00,
2013-06-17 14:59:00,84.4,60.7,29.93,West,270,3.1,7.6,45,0.00,,,0.00,pywws,2013-06-17 18:59:00,
2013-06-17 15:04:00,84.7,61.0,29.93,West,270,6.9,10.7,45,0.00,,,0.00,pywws,2013-06-17 19:04:00,
2013-06-17 15:10:00,85.6,61.8,29.93,West,270,3.8,6.9,45,0.00,,,0.00,pywws,2013-06-17 19:10:00,
2013-06-17 15:16:00,86.0,61.5,29.94,NW,315,11.4,13.0,44,0.00,,,0.00,pywws,2013-06-17 19:16:00,
2013-06-17 15:21:00,86.2,62.3,29.94,South,180,6.9,11.4,45,0.00,,,0.00,pywws,2013-06-17 19:21:00,
2013-06-17 15:27:00,86.2,62.3,29.94,NW,315,6.0,11.4,45,0.00,,,0.00,pywws,2013-06-17 19:27:00,
2013-06-17 15:32:00,85.6,61.8,29.94,NW,315,5.4,11.4,45,0.00,,,0.00,pywws,2013-06-17 19:32:00,
2013-06-17 15:38:00,85.3,62.1,29.93,West,270,6.9,11.4,46,0.00,,,0.00,pywws,2013-06-17 19:38:00,
2013-06-17 15:44:00,85.3,61.5,29.93,NE,45,4.5,7.6,45,0.00,,,0.00,pywws,2013-06-17 19:44:00,
2013-06-17 15:49:00,84.9,61.8,29.93,SW,225,4.5,9.2,46,0.00,,,0.00,pywws,2013-06-17 19:49:00,
2013-06-17 15:55:00,84.9,61.8,29.93,West,270,5.4,7.6,46,0.00,,,0.00,pywws,2013-06-17 19:55:00,
2013-06-17 16:00:00,84.7,62.2,29.93,NW,315,3.8,6.9,47,0.00,,,0.00,pywws,2013-06-17 20:00:00,
2013-06-17 16:06:00,84.9,61.8,29.93,WNW,292,4.5,7.6,46,0.00,,,0.00,pywws,2013-06-17 20:06:00,
2013-06-17 16:12:00,85.1,62.0,29.92,NW,315,6.9,9.8,46,0.00,,,0.00,pywws,2013-06-17 20:12:00,
2013-06-17 16:17:00,85.6,62.4,29.92,West,270,4.5,10.7,46,0.00,,,0.00,pywws,2013-06-17 20:17:00,
2013-06-17 16:23:00,86.0,62.2,29.92,NW,315,7.6,10.7,45,0.00,,,0.00,pywws,2013-06-17 20:23:00,
2013-06-17 16:28:00,86.0,62.2,29.92,NW,315,6.0,10.7,45,0.00,,,0.00,pywws,2013-06-17 20:28:00,
2013-06-17 16:34:00,85.8,62.6,29.92,NW,315,5.4,7.6,46,0.00,,,0.00,pywws,2013-06-17 20:34:00,
2013-06-17 16:40:00,85.8,63.2,29.92,West,270,4.5,8.3,47,0.00,,,0.00,pywws,2013-06-17 20:40:00,
2013-06-17 16:45:00,85.8,63.2,29.92,West,270,3.8,5.4,47,0.00,,,0.00,pywws,2013-06-17 20:45:00,
2013-06-17 16:51:00,85.8,63.2,29.91,SW,225,7.6,13.0,47,0.00,,,0.00,pywws,2013-06-17 20:51:00,
2013-06-17 16:56:00,85.8,62.6,29.91,NW,315,5.4,6.9,46,0.00,,,0.00,pywws,2013-06-17 20:56:00,
2013-06-17 17:02:00,86.0,62.8,29.92,West,270,5.4,7.6,46,0.00,,,0.00,pywws,2013-06-17 21:02:00,
2013-06-17 17:08:00,86.2,62.9,29.92,SSW,202,5.4,7.6,46,0.00,,,0.00,pywws,2013-06-17 21:08:00,
2013-06-17 17:13:00,86.2,62.3,29.92,NW,315,5.4,6.9,45,0.00,,,0.00,pywws,2013-06-17 21:13:00,
2013-06-17 17:19:00,86.2,62.3,29.92,WSW,248,4.5,6.9,45,0.00,,,0.00,pywws,2013-06-17 21:19:00,
2013-06-17 17:25:00,86.4,62.5,29.92,NW,315,8.3,11.4,45,0.00,,,0.00,pywws,2013-06-17 21:25:00,
2013-06-17 17:31:00,86.2,62.3,29.92,South,180,5.4,8.3,45,0.00,,,0.00,pywws,2013-06-17 21:31:00,
2013-06-17 17:36:00,86.0,62.8,29.92,SSW,202,4.5,5.4,46,0.00,,,0.00,pywws,2013-06-17 21:36:00,
2013-06-17 17:42:00,86.0,62.8,29.92,South,180,5.4,8.3,46,0.00,,,0.00,pywws,2013-06-17 21:42:00,
2013-06-17 17:48:00,85.8,63.2,29.92,North,0,4.5,8.3,47,0.00,,,0.00,pywws,2013-06-17 21:48:00,
2013-06-17 17:53:00,85.5,62.9,29.92,South,180,3.8,6.0,47,0.00,,,0.00,pywws,2013-06-17 21:53:00,
2013-06-17 17:59:00,85.5,62.9,29.92,West,270,3.8,7.6,47,0.00,,,0.00,pywws,2013-06-17 21:59:00,
2013-06-17 18:04:00,85.6,62.4,29.92,WSW,248,5.4,7.6,46,0.00,,,0.00,pywws,2013-06-17 22:04:00,
2013-06-17 18:10:00,85.8,62.6,29.92,SW,225,4.5,6.9,46,0.00,,,0.00,pywws,2013-06-17 22:10:00,
2013-06-17 18:16:00,86.0,62.8,29.93,SSE,158,3.8,7.6,46,0.00,,,0.00,pywws,2013-06-17 22:16:00,
2013-06-17 18:21:00,86.0,62.8,29.93,SW,225,6.0,7.6,46,0.00,,,0.00,pywws,2013-06-17 22:21:00,
2013-06-17 18:27:00,85.8,62.6,29.93,NNE,22,3.1,6.0,46,0.00,,,0.00,pywws,2013-06-17 22:27:00,
2013-06-17 18:32:00,85.5,62.9,29.93,NW,315,1.6,3.1,47,0.00,,,0.00,pywws,2013-06-17 22:32:00,
2013-06-17 18:38:00,85.6,62.4,29.93,NW,315,3.1,5.4,46,0.00,,,0.00,pywws,2013-06-17 22:38:00,
2013-06-17 18:44:00,85.8,63.2,29.93,South,180,2.2,5.4,47,0.00,,,0.00,pywws,2013-06-17 22:44:00,
2013-06-17 18:49:00,86.0,62.8,29.93,SW,225,4.5,6.0,46,0.00,,,0.00,pywws,2013-06-17 22:49:00,
2013-06-17 18:55:00,86.2,62.3,29.93,West,270,6.9,9.8,45,0.00,,,0.00,pywws,2013-06-17 22:55:00,
2013-06-17 19:00:00,86.9,63.0,29.93,South,180,2.2,7.6,45,0.00,,,0.00,pywws,2013-06-17 23:00:00,
2013-06-17 19:06:00,87.6,63.6,29.93,SW,225,4.5,7.6,45,0.00,,,0.00,pywws,2013-06-17 23:06:00,
2013-06-17 19:12:00,88.3,63.6,29.93,SW,225,5.4,9.2,44,0.00,,,0.00,pywws,2013-06-17 23:12:00,
2013-06-17 19:17:00,87.3,62.6,29.94,West,270,3.1,4.5,44,0.00,,,0.00,pywws,2013-06-17 23:17:00,
2013-06-17 19:23:00,86.2,62.3,29.94,ESE,112,4.5,6.9,45,0.00,,,0.00,pywws,2013-06-17 23:23:00,
2013-06-17 19:28:00,85.1,62.0,29.94,West,270,2.2,4.5,46,0.00,,,0.00,pywws,2013-06-17 23:28:00,
2013-06-17 19:34:00,84.2,61.1,29.94,NW,315,1.6,3.1,46,0.00,,,0.00,pywws,2013-06-17 23:34:00,
2013-06-17 19:40:00,83.7,61.9,29.94,South,180,5.4,6.9,48,0.00,,,0.00,pywws,2013-06-17 23:40:00,
2013-06-17 19:45:00,82.9,61.8,29.95,SW,225,3.1,4.5,49,0.00,,,0.00,pywws,2013-06-17 23:45:00,
2013-06-17 19:51:00,82.6,61.5,29.95,West,270,4.5,7.6,49,0.00,,,0.00,pywws,2013-06-17 23:51:00,
2013-06-17 19:56:00,82.2,62.3,29.95,SW,225,4.5,6.0,51,0.00,,,0.00,pywws,2013-06-17 23:56:00,
2013-06-17 20:02:00,81.9,61.9,29.95,SW,225,5.4,8.3,51,0.00,,,0.00,pywws,2013-06-18 00:02:00,
2013-06-17 20:08:00,81.7,61.8,29.96,SW,225,4.5,5.4,51,0.00,,,0.00,pywws,2013-06-18 00:08:00,
2013-06-17 20:13:00,81.3,61.4,29.95,East,90,0.7,1.6,51,0.00,,,0.00,pywws,2013-06-18 00:13:00,
2013-06-17 20:19:00,80.6,60.8,29.96,East,90,1.6,3.1,51,0.00,,,0.00,pywws,2013-06-18 00:19:00,
2013-06-17 20:24:00,80.1,61.4,29.96,South,180,0.0,0.7,53,0.00,,,0.00,pywws,2013-06-18 00:24:00,
2013-06-17 20:30:00,79.5,61.4,29.96,SE,135,0.0,0.7,54,0.00,,,0.00,pywws,2013-06-18 00:30:00,
2013-06-17 20:36:00,79.0,61.4,29.96,SW,225,0.0,1.6,55,0.00,,,0.00,pywws,2013-06-18 00:36:00,
2013-06-17 20:41:00,78.4,61.9,29.97,NNW,338,3.1,4.5,57,0.00,,,0.00,pywws,2013-06-18 00:41:00,
2013-06-17 20:47:00,78.3,61.8,29.97,South,180,0.0,0.0,57,0.00,,,0.00,pywws,2013-06-18 00:47:00,
2013-06-17 20:52:00,77.9,61.9,29.97,East,90,0.0,0.7,58,0.00,,,0.00,pywws,2013-06-18 00:52:00,
2013-06-17 20:58:00,77.7,61.7,29.97,South,180,0.7,1.6,58,0.00,,,0.00,pywws,2013-06-18 00:58:00,
2013-06-17 21:04:00,77.5,62.1,29.97,South,180,0.0,0.0,59,0.00,,,0.00,pywws,2013-06-18 01:04:00,
2013-06-17 21:10:00,77.2,62.2,29.97,West,270,0.0,0.0,60,0.00,,,0.00,pywws,2013-06-18 01:10:00,
2013-06-17 21:16:00,77.0,62.0,29.97,East,90,0.0,0.7,60,0.00,,,0.00,pywws,2013-06-18 01:16:00,
2013-06-17 21:21:00,76.6,62.2,29.97,East,90,0.0,0.7,61,0.00,,,0.00,pywws,2013-06-18 01:21:00,
2013-06-17 21:27:00,76.5,62.5,29.97,East,90,0.0,0.0,62,0.00,,,0.00,pywws,2013-06-18 01:27:00,
2013-06-17 21:32:00,76.1,62.6,29.97,East,90,0.7,1.6,63,0.00,,,0.00,pywws,2013-06-18 01:32:00,
2013-06-17 21:38:00,75.7,62.7,29.98,East,90,0.0,1.6,64,0.00,,,0.00,pywws,2013-06-18 01:38:00,
2013-06-17 21:44:00,75.6,62.5,29.98,North,0,0.7,1.6,64,0.00,,,0.00,pywws,2013-06-18 01:44:00,
2013-06-17 21:50:00,75.4,62.3,29.98,North,0,0.0,0.0,64,0.00,,,0.00,pywws,2013-06-18 01:50:00,
2013-06-17 21:56:00,75.2,62.2,29.98,NW,315,0.0,0.7,64,0.00,,,0.00,pywws,2013-06-18 01:56:00,
2013-06-17 22:01:00,75.0,62.9,29.98,East,90,1.6,2.2,66,0.00,,,0.00,pywws,2013-06-18 02:01:00,
2013-06-17 22:07:00,74.7,62.5,29.98,SE,135,0.0,1.6,66,0.00,,,0.00,pywws,2013-06-18 02:07:00,
2013-06-17 22:12:00,74.7,62.5,29.99,East,90,0.0,0.0,66,0.00,,,0.00,pywws,2013-06-18 02:12:00,
2013-06-17 22:18:00,74.5,62.8,29.99,East,90,0.0,0.0,67,0.00,,,0.00,pywws,2013-06-18 02:18:00,
2013-06-17 22:24:00,74.3,62.6,29.99,South,180,0.0,0.7,67,0.00,,,0.00,pywws,2013-06-18 02:24:00,
2013-06-17 22:29:00,73.9,62.7,29.99,East,90,0.0,0.0,68,0.00,,,0.00,pywws,2013-06-18 02:29:00,
2013-06-17 22:35:00,73.9,62.7,29.98,SE,135,0.0,0.0,68,0.00,,,0.00,pywws,2013-06-18 02:35:00,
2013-06-17 22:40:00,73.8,62.9,29.99,NW,315,0.0,0.0,69,0.00,,,0.00,pywws,2013-06-18 02:40:00,
2013-06-17 22:46:00,73.6,62.8,29.98,NE,45,0.0,0.0,69,0.00,,,0.00,pywws,2013-06-18 02:46:00,
2013-06-17 22:52:00,73.4,62.6,29.98,East,90,0.0,1.6,69,0.00,,,0.00,pywws,2013-06-18 02:52:00,
2013-06-17 22:57:00,73.4,63.0,29.98,East,90,0.0,0.7,70,0.00,,,0.00,pywws,2013-06-18 02:57:00,
2013-06-17 23:03:00,73.2,63.2,29.98,East,90,0.0,0.0,71,0.00,,,0.00,pywws,2013-06-18 03:03:00,
2013-06-17 23:08:00,73.0,63.1,29.99,East,90,0.0,0.0,71,0.00,,,0.00,pywws,2013-06-18 03:08:00,
2013-06-17 23:14:00,72.9,62.9,29.98,South,180,0.7,1.6,71,0.00,,,0.00,pywws,2013-06-18 03:14:00,
2013-06-17 23:20:00,72.7,62.7,29.98,SE,135,0.0,0.0,71,0.00,,,0.00,pywws,2013-06-18 03:20:00,
2013-06-17 23:25:00,72.5,62.5,29.98,South,180,0.0,0.0,71,0.00,,,0.00,pywws,2013-06-18 03:25:00,
2013-06-17 23:31:00,72.5,62.5,29.98,SE,135,0.0,0.7,71,0.00,,,0.00,pywws,2013-06-18 03:31:00,
2013-06-17 23:36:00,72.5,62.9,29.98,South,180,0.0,0.0,72,0.00,,,0.00,pywws,2013-06-18 03:36:00,
2013-06-17 23:42:00,72.3,62.4,29.98,South,180,0.0,0.0,71,0.00,,,0.00,pywws,2013-06-18 03:42:00,
2013-06-17 23:48:00,72.3,62.4,29.98,SW,225,0.7,2.2,71,0.00,,,0.00,pywws,2013-06-18 03:48:00,
2013-06-17 23:53:00,72.1,62.2,29.98,SW,225,0.0,1.6,71,0.00,,,0.00,pywws,2013-06-18 03:53:00,
2013-06-17 23:59:00,72.1,62.2,29.98,WNW,292,0.0,0.7,71,0.00,,,0.00,pywws,2013-06-18 03:59:00,